Time;durP1;ratioP1;P1;durP2;ratioP2;P2;SDS_P1;SDS_P2;PMS_P1;PMS_P2;Temp;Humidity;BMP_temperature;BMP_pressure;BME280_temperature;BME280_humidity;BME280_pressure;Samples;Min_cycle;Max_cycle;Signal;HPM_P1;HPM_P2
2022/08/08 00:00:17;;;;;;;0.50;0.50;;;21.30;58.40;;;21.68;44.09;95441.66;5026254;28;20207;-79
2022/08/08 00:03:13;;;;;;;0.40;0.40;;;21.20;59.40;;;21.67;44.19;95450.75;5015244;28;20204;-79
2022/08/08 00:06:18;;;;;;;0.40;0.40;;;21.20;59.40;;;21.64;43.96;95453.91;5039782;28;20220;-76
2022/08/08 00:09:02;;;;;;;0.50;0.50;;;21.20;59.10;;;21.59;43.54;95451.97;5019924;28;20360;-80
2022/08/08 00:11:48;;;;;;;0.30;0.30;;;21.20;59.10;;;21.59;44.24;95454.63;5050539;28;20631;-79
2022/08/08 00:14:48;;;;;;;0.40;0.40;;;21.20;59.50;;;21.55;43.79;95451.63;5042777;28;20191;-79
2022/08/08 00:17:53;;;;;;;0.40;0.40;;;21.10;59.50;;;21.51;44.03;95453.19;5015891;28;20221;-79
2022/08/08 00:20:52;;;;;;;0.30;0.30;;;21.10;59.30;;;21.48;44.17;95451.00;5016429;28;20200;-79
2022/08/08 00:24:02;;;;;;;0.40;0.40;;;21.10;58.80;;;21.42;44.04;95442.13;5011531;28;20414;-78
2022/08/08 00:26:41;;;;;;;0.40;0.40;;;21.10;59.00;;;21.42;43.98;95442.13;5000046;28;20245;-79
2022/08/08 00:29:44;;;;;;;0.40;0.40;;;21.10;59.20;;;21.38;44.06;95450.88;5028017;28;20184;-78
2022/08/08 00:32:32;;;;;;;0.60;0.60;;;21.00;58.70;;;21.35;43.94;95446.00;5021341;28;20243;-79
2022/08/08 00:35:33;;;;;;;0.40;0.40;;;21.00;59.00;;;21.31;43.76;95456.38;4995860;28;20289;-79
2022/08/08 00:38:34;;;;;;;0.40;0.40;;;20.90;59.10;;;21.26;44.05;95451.81;5013965;28;20193;-78
2022/08/08 00:42:04;;;;;;;0.40;0.40;;;20.90;58.90;;;21.19;43.85;95445.00;5043371;28;20267;-78
2022/08/08 00:45:29;;;;;;;0.40;0.40;;;20.90;58.80;;;21.09;43.84;95448.34;5030441;28;20196;-79
2022/08/08 00:48:42;;;;;;;0.40;0.40;;;20.80;58.90;;;21.02;44.00;95451.19;4993845;28;20598;-79
2022/08/08 00:51:57;;;;;;;0.38;0.38;;;20.70;59.10;;;20.92;44.00;95446.50;5015860;28;20224;-78
2022/08/08 00:54:51;;;;;;;0.40;0.40;;;20.60;58.90;;;20.83;43.88;95445.28;4995142;28;20246;-78
2022/08/08 00:57:43;;;;;;;0.35;0.35;;;20.50;59.10;;;20.77;44.09;95444.41;5044058;28;20216;-79
2022/08/08 01:00:27;;;;;;;0.40;0.40;;;20.50;59.10;;;20.64;43.98;95439.38;5022240;28;20203;-79
2022/08/08 01:03:28;;;;;;;0.50;0.50;;;20.40;59.30;;;20.60;44.50;95448.91;5000373;28;20300;-78
2022/08/08 01:06:30;;;;;;;0.45;0.45;;;20.30;59.00;;;20.52;44.15;95451.97;5004141;28;20243;-79
2022/08/08 01:10:01;;;;;;;0.40;0.40;;;20.20;59.00;;;20.42;44.41;95448.09;5029269;28;20200;-79
2022/08/08 01:12:54;;;;;;;0.50;0.50;;;20.10;58.90;;;;;;5031312;28;20251;-79
2022/08/08 01:15:37;;;;;;;0.45;0.45;;;20.10;59.60;;;20.29;44.79;95438.53;5032797;28;20196;-78
2022/08/08 01:18:52;;;;;;;0.40;0.40;;;20.00;59.80;;;20.21;44.46;95443.47;5067440;28;20601;-79
2022/08/08 01:21:48;;;;;;;0.40;0.40;;;19.90;59.30;;;20.16;45.12;95446.84;5029165;28;20231;-79
2022/08/08 01:25:34;;;;;;;0.40;0.40;;;19.80;59.40;;;20.07;44.37;95442.97;5038053;28;20624;-79
2022/08/08 01:28:34;;;;;;;0.50;0.50;;;19.80;59.60;;;19.99;44.72;95444.97;5031411;28;20197;-78
2022/08/08 01:31:38;;;;;;;0.40;0.40;;;19.70;60.00;;;19.93;45.06;95445.91;5016636;28;20267;-79
2022/08/08 01:34:40;;;;;;;0.40;0.40;;;19.60;59.80;;;19.87;45.15;95446.03;5033697;28;20188;-78
2022/08/08 01:37:44;;;;;;;0.50;0.50;;;19.60;60.20;;;19.82;45.00;95444.03;5050423;28;20702;-79
2022/08/08 01:40:58;;;;;;;0.40;0.40;;;19.50;60.10;;;19.76;45.07;95443.16;5061212;28;20188;-79
2022/08/08 01:43:36;;;;;;;0.43;0.43;;;19.40;60.50;;;19.71;45.38;95442.25;5067376;28;20698;-79
2022/08/08 01:46:53;;;;;;;0.40;0.40;;;19.40;60.20;;;19.63;45.31;95436.25;5049340;28;20251;-80
2022/08/08 01:49:48;;;;;;;0.43;0.43;;;19.30;60.60;;;19.58;45.61;95443.31;5064396;28;20204;-78
2022/08/08 01:52:50;;;;;;;0.45;0.45;;;19.30;60.30;;;19.53;45.30;95441.38;5018805;28;20235;-78
2022/08/08 01:56:17;;;;;;;0.40;0.40;;;19.20;60.60;;;19.47;45.40;95437.78;5006034;28;20271;-79
2022/08/08 01:59:38;;;;;;;0.50;0.50;;;19.10;60.60;;;19.38;45.55;95431.22;5033623;28;20580;-79
2022/08/08 02:03:03;;;;;;;0.40;0.40;;;19.10;60.60;;;19.36;45.41;95442.09;5060595;28;20227;-79
2022/08/08 02:06:08;;;;;;;0.40;0.40;;;19.00;60.40;;;19.30;45.88;95435.03;5043307;28;20243;-79
2022/08/08 02:09:14;;;;;;;0.47;0.47;;;19.00;60.60;;;19.27;45.70;95434.69;5030779;28;20196;-79
2022/08/08 02:11:47;;;;;;;0.50;0.50;;;18.90;60.80;;;19.25;45.72;95439.44;5032633;28;20694;-79
2022/08/08 02:14:50;;;;;;;0.40;0.40;;;18.90;60.70;;;19.22;46.21;95446.03;5046597;28;20204;-79
2022/08/08 02:17:56;;;;;;;0.40;0.40;;;18.80;61.00;;;19.18;46.40;95437.72;5017762;28;20588;-80
2022/08/08 02:20:37;;;;;;;0.50;0.50;;;18.80;61.20;;;19.17;46.01;95446.72;4996779;28;20201;-79
2022/08/08 02:23:34;;;;;;;0.50;0.50;;;18.80;61.30;;;19.15;46.05;95450.66;5029954;28;20728;-79
2022/08/08 02:26:11;;;;;;;0.40;0.40;;;18.80;61.40;;;19.13;46.54;95447.44;4997789;28;20608;-78
2022/08/08 02:28:51;;;;;;;0.40;0.40;;;18.70;61.30;;;19.11;46.64;95441.53;5031569;28;20631;-79
2022/08/08 02:31:39;;;;;;;0.40;0.40;;;18.70;61.10;;;19.09;46.56;95448.94;5014732;28;20270;-78
2022/08/08 02:35:01;;;;;;;0.40;0.40;;;18.70;61.30;;;19.04;46.34;95442.47;5031227;28;20227;-79
2022/08/08 02:38:26;;;;;;;0.40;0.40;;;18.70;61.50;;;19.05;46.45;95453.91;5030585;28;20195;-79
2022/08/08 02:41:39;;;;;;;0.50;0.50;;;18.70;61.50;;;19.03;46.05;95451.50;5063367;28;20234;-79
2022/08/08 02:45:07;;;;;;;0.50;0.50;;;18.70;61.30;;;18.99;46.01;95447.69;5031131;28;20200;-79
2022/08/08 02:48:04;;;;;;;0.40;0.40;;;18.70;61.40;;;19.04;46.48;95450.44;4997112;28;20335;-79
2022/08/08 02:51:05;;;;;;;0.50;0.50;;;18.80;61.60;;;19.06;46.50;95454.72;5044645;28;20203;-79
2022/08/08 02:54:22;;;;;;;0.50;0.50;;;18.70;61.30;;;19.06;46.68;95450.22;5028637;28;20211;-79
2022/08/08 02:57:20;;;;;;;0.40;0.40;;;18.70;61.40;;;19.07;46.77;95454.50;5033537;28;20219;-79
2022/08/08 03:00:22;;;;;;;0.40;0.40;;;18.70;61.50;;;19.08;46.36;95457.94;5032864;28;20583;-79
2022/08/08 03:03:41;;;;;;;0.43;0.43;;;18.70;61.40;;;19.05;46.38;95459.22;5027102;28;20200;-79
2022/08/08 03:07:03;;;;;;;0.43;0.43;;;18.70;61.40;;;19.03;46.16;95462.13;5012702;28;20220;-79
2022/08/08 03:10:17;;;;;;;0.47;0.47;;;18.70;61.20;;;19.02;46.29;95468.47;5012814;28;20200;-78
2022/08/08 03:13:26;;;;;;;0.40;0.40;;;18.70;61.00;;;18.98;46.22;95464.66;5031883;28;20290;-79
2022/08/08 03:16:22;;;;;;;0.50;0.50;;;18.60;60.90;;;18.96;46.19;95469.41;5018372;28;20235;-79
2022/08/08 03:19:21;;;;;;;0.40;0.40;;;18.60;61.10;;;18.92;46.57;95462.13;5031995;28;20253;-79
2022/08/08 03:21:49;;;;;;;0.50;0.50;;;18.60;61.00;;;18.88;46.03;95459.91;5048960;28;20305;-79
2022/08/08 03:24:27;;;;;;;0.40;0.40;;;18.60;60.90;;;18.85;46.25;95462.22;5047588;28;20196;-79
2022/08/08 03:27:20;;;;;;;0.55;0.55;;;18.50;60.90;;;18.82;46.35;95462.66;5048371;28;20278;-79
2022/08/08 03:30:03;;;;;;;0.40;0.40;;;18.50;61.40;;;18.80;46.38;95467.41;5011385;28;20208;-79
2022/08/08 03:35:40;;;;;;;0.50;0.50;;;18.40;61.20;;;18.73;46.22;95456.88;5028596;28;20228;-79
2022/08/08 03:38:10;;;;;;;0.40;0.40;;;18.40;61.50;;;18.71;46.68;95465.09;5020807;28;20219;-79
2022/08/08 03:40:57;;;;;;;0.40;0.40;;;18.40;61.30;;;18.70;46.42;95459.97;4998746;28;20698;-79
2022/08/08 03:43:34;;;;;;;0.50;0.50;;;18.30;61.20;;;18.68;46.54;95464.72;5027348;28;20554;-79
2022/08/08 03:46:06;;;;;;;0.43;0.43;;;18.30;61.30;;;18.63;46.56;95457.44;5028626;28;20220;-79
2022/08/08 03:48:37;;;;;;;0.50;0.50;;;18.30;61.40;;;18.64;47.06;95459.06;5027445;28;20200;-79
2022/08/08 03:51:30;;;;;;;0.43;0.43;;;18.30;61.50;;;18.62;47.09;95468.31;5041430;28;20229;-79
2022/08/08 03:54:19;;;;;;;0.50;0.50;;;18.20;61.40;;;18.60;46.70;95465.84;5028512;28;20213;-79
2022/08/08 03:57:12;;;;;;;0.40;0.40;;;18.30;61.70;;;18.58;47.12;95467.94;5029510;28;20216;-79
2022/08/08 03:59:59;;;;;;;0.50;0.50;;;18.30;62.10;;;18.54;47.03;95464.94;5031322;28;20192;-79
2022/08/08 04:02:43;;;;;;;0.40;0.40;;;18.20;61.70;;;18.53;46.91;95462.53;5017205;28;20267;-79
2022/08/08 04:05:14;;;;;;;0.40;0.40;;;18.20;61.90;;;18.49;47.05;95462.16;4999155;28;20253;-79
2022/08/08 04:07:46;;;;;;;0.50;0.50;;;18.20;62.10;;;18.51;47.32;95470.69;5000230;28;20239;-79
2022/08/08 04:10:17;;;;;;;0.47;0.47;;;18.20;62.10;;;18.49;47.17;95462.16;4999406;28;20623;-79
2022/08/08 04:12:44;;;;;;;0.50;0.50;;;18.10;62.00;;;18.49;47.04;95459.50;4998877;28;20212;-79
2022/08/08 04:15:12;;;;;;;0.40;0.40;;;18.10;62.80;;;18.48;47.48;95457.88;5014319;28;20681;-79
2022/08/08 04:17:43;;;;;;;0.50;0.50;;;18.10;62.00;;;18.51;47.22;95467.25;5015628;28;20230;-78
2022/08/08 04:20:26;;;;;;;0.70;0.70;;;18.10;62.00;;;18.49;47.43;95470.13;5018069;28;20574;-79
2022/08/08 04:22:57;;;;;;;0.45;0.45;;;18.10;62.00;;;18.48;47.06;95457.88;4978720;28;20581;-79
2022/08/08 04:25:25;;;;;;;0.50;0.50;;;18.10;62.00;;;18.48;47.03;95465.84;5011696;28;20575;-79
2022/08/08 04:27:57;;;;;;;0.40;0.40;;;18.10;61.90;;;18.50;47.20;95469.06;5028523;28;20231;-79
2022/08/08 04:30:46;;;;;;;0.50;0.50;;;18.10;62.00;;;18.52;47.79;95468.88;5017623;28;20219;-79
2022/08/08 04:33:13;;;;;;;0.50;0.50;;;18.10;62.00;;;18.53;47.30;95478.47;5014799;28;20724;-79
2022/08/08 04:35:42;;;;;;;0.50;0.50;;;18.20;62.10;;;18.52;47.37;95467.00;4998454;28;20261;-79
2022/08/08 04:38:20;;;;;;;0.40;0.40;;;18.20;62.10;;;18.52;47.63;95472.31;5046437;28;20195;-79
2022/08/08 04:40:50;;;;;;;0.50;0.50;;;18.20;62.10;;;18.54;47.54;95469.44;5048262;28;20250;-79
2022/08/08 04:43:22;;;;;;;0.50;0.50;;;18.20;62.10;;;18.59;47.70;95471.41;5063793;28;20658;-79
2022/08/08 04:46:10;;;;;;;0.50;0.50;;;18.20;62.10;;;18.61;47.35;95479.97;5028623;28;20215;-78
2022/08/08 04:48:40;;;;;;;0.50;0.50;;;18.20;62.10;;;18.60;47.72;95481.78;4999116;28;20318;-79
2022/08/08 04:51:09;;;;;;;0.43;0.43;;;18.20;62.10;;;18.67;47.18;95476.41;5014878;28;20216;-79
2022/08/08 04:53:36;;;;;;;0.45;0.45;;;18.30;62.10;;;18.70;47.82;95490.03;5014148;28;20211;-79
2022/08/08 04:56:23;;;;;;;0.45;0.45;;;18.30;62.30;;;18.78;47.92;95493.41;5044626;28;20224;-78
2022/08/08 04:58:51;;;;;;;0.40;0.40;;;18.40;62.20;;;18.83;47.33;95502.28;5028399;28;20680;-79
2022/08/08 05:01:19;;;;;;;0.40;0.40;;;18.40;62.20;;;18.89;47.86;95495.25;5014639;28;20236;-79
2022/08/08 05:03:49;;;;;;;0.50;0.50;;;18.40;62.20;;;18.96;47.92;95503.16;4999829;28;20220;-80
2022/08/08 05:06:40;;;;;;;0.40;0.40;;;18.50;62.30;;;19.05;47.99;95499.09;5004236;28;20646;-79
2022/08/08 05:09:10;;;;;;;0.40;0.40;;;18.60;62.40;;;19.12;47.64;95497.13;5047886;28;20208;-79
2022/08/08 05:11:40;;;;;;;0.40;0.40;;;18.70;62.50;;;19.20;47.47;95503.97;5047424;28;20208;-79
2022/08/08 05:14:13;;;;;;;0.40;0.40;;;18.70;62.50;;;19.28;47.29;95495.63;5046749;28;20566;-79
2022/08/08 05:16:45;;;;;;;0.47;0.47;;;18.80;62.50;;;19.35;47.54;95501.66;5060930;28;20230;-79
2022/08/08 05:19:27;;;;;;;0.40;0.40;;;18.90;62.60;;;19.42;47.09;95501.53;5061291;28;20281;-80
2022/08/08 05:22:16;;;;;;;0.45;0.45;;;19.00;62.50;;;19.49;47.56;95501.41;5030556;28;20220;-79
2022/08/08 05:24:47;;;;;;;0.40;0.40;;;19.10;62.60;;;19.55;47.67;95500.47;5046242;28;20308;-79
2022/08/08 05:27:19;;;;;;;0.40;0.40;;;19.10;62.30;;;19.61;47.55;95506.72;5029099;28;20227;-78
2022/08/08 05:29:47;;;;;;;0.50;0.50;;;19.20;63.10;;;19.65;47.34;95502.53;5048670;28;20576;-79
2022/08/08 05:32:19;;;;;;;0.40;0.40;;;19.30;62.50;;;19.72;47.23;95508.53;5062838;28;20240;-79
2022/08/08 05:34:51;;;;;;;0.40;0.40;;;19.30;61.90;;;19.73;47.18;95506.69;5029888;28;20243;-79
2022/08/08 05:37:29;;;;;;;0.50;0.50;;;19.40;61.80;;;19.80;47.12;95510.84;4995641;28;20220;-80
2022/08/08 05:40:17;;;;;;;0.45;0.45;;;19.40;61.90;;;19.88;47.42;95515.00;4997472;28;20200;-79
2022/08/08 05:42:51;;;;;;;0.50;0.50;;;19.50;62.00;;;19.92;47.29;95520.66;5010822;28;20224;-80
2022/08/08 05:45:19;;;;;;;0.50;0.50;;;19.50;62.10;;;19.97;47.23;95510.16;5024239;28;20208;-79
2022/08/08 05:48:09;;;;;;;0.50;0.50;;;19.60;61.80;;;19.99;46.70;95524.00;5026748;28;20216;-79
2022/08/08 05:50:41;;;;;;;0.40;0.40;;;19.60;61.70;;;20.02;47.06;95525.38;5014508;28;20200;-79
2022/08/08 05:53:08;;;;;;;0.40;0.40;;;19.70;61.80;;;20.03;47.15;95519.03;4996183;28;20200;-78
2022/08/08 05:55:59;;;;;;;0.50;0.50;;;19.70;61.60;;;20.04;46.61;95526.75;5033908;28;20218;-79
2022/08/08 05:58:43;;;;;;;0.50;0.50;;;19.70;61.40;;;20.07;46.91;95528.97;5044737;28;20196;-78
2022/08/08 06:01:33;;;;;;;0.45;0.45;;;19.80;61.50;;;20.11;46.99;95522.13;5026908;28;20262;-78
2022/08/08 06:04:32;;;;;;;0.40;0.40;;;19.80;61.50;;;20.15;47.11;95525.94;5028845;28;20511;-78
2022/08/08 06:07:03;;;;;;;0.40;0.40;;;19.80;61.40;;;20.22;46.68;95535.63;5046317;28;20586;-79
2022/08/08 06:09:36;;;;;;;0.50;0.50;;;19.90;61.40;;;20.26;46.75;95532.28;5032026;28;20204;-79
2022/08/08 06:12:24;;;;;;;0.45;0.45;;;19.90;61.40;;;20.30;46.72;95537.94;5026138;28;20221;-78
2022/08/08 06:15:00;;;;;;;0.40;0.40;;;20.00;61.40;;;20.37;46.24;95546.56;5028541;28;20197;-78
2022/08/08 06:17:39;;;;;;;0.40;0.40;;;20.00;61.40;;;20.44;46.73;95541.09;5030421;28;20294;-78
2022/08/08 06:20:26;;;;;;;0.40;0.40;;;20.10;61.50;;;20.52;46.37;95547.91;5018574;28;20658;-78
2022/08/08 06:22:54;;;;;;;0.40;0.40;;;20.20;61.40;;;20.58;46.27;95550.44;5014233;28;20745;-79
2022/08/08 06:25:30;;;;;;;0.40;0.40;;;20.20;61.40;;;20.63;46.40;95552.38;5029286;28;20208;-80
2022/08/08 06:28:53;;;;;;;0.40;0.40;;;20.30;61.10;;;20.64;46.18;95554.81;5045819;28;20325;-79
2022/08/08 06:31:22;;;;;;;0.40;0.40;;;20.30;60.60;;;20.73;45.45;95557.91;5028107;28;20446;-79
2022/08/08 06:34:26;;;;;;;0.43;0.43;;;20.40;60.90;;;20.79;45.58;95558.81;5030656;28;20216;-80
2022/08/08 06:37:01;;;;;;;0.40;0.40;;;20.50;60.70;;;20.86;45.37;95558.66;5030366;28;20236;-79
2022/08/08 06:39:50;;;;;;;0.40;0.40;;;20.50;60.40;;;20.92;45.87;95563.84;5034996;28;20203;-79
2022/08/08 06:42:28;;;;;;;0.40;0.40;;;20.60;60.60;;;20.98;45.76;95555.91;5044629;28;20319;-79
2022/08/08 06:44:59;;;;;;;0.50;0.50;;;20.60;60.50;;;21.05;45.90;95556.56;5044689;28;20195;-80
2022/08/08 06:47:26;;;;;;;0.40;0.40;;;20.70;60.60;;;21.14;45.28;95565.81;5052376;28;20311;-78
2022/08/08 06:50:14;;;;;;;0.30;0.30;;;20.80;60.50;;;21.25;45.18;95566.75;5000137;28;20196;-79
2022/08/08 06:53:03;;;;;;;0.40;0.40;;;20.90;60.30;;;21.35;45.10;95572.25;5032267;28;20205;-79
2022/08/08 06:55:49;;;;;;;0.40;0.40;;;21.00;60.20;;;21.46;45.08;95572.41;5052125;28;20218;-79
2022/08/08 06:58:32;;;;;;;0.40;0.40;;;21.10;61.30;;;21.55;44.81;95573.59;5017524;28;20556;-78
2022/08/08 07:01:06;;;;;;;0.40;0.40;;;21.20;60.20;;;21.63;45.02;95573.22;5040666;28;20227;-78
2022/08/08 07:04:03;;;;;;;0.30;0.30;;;21.30;60.10;;;21.74;44.87;95582.97;5033305;28;20774;-79
2022/08/08 07:06:59;;;;;;;0.40;0.40;;;21.40;60.00;;;21.84;44.89;95576.19;5031038;28;20282;-79
2022/08/08 07:09:50;;;;;;;0.40;0.40;;;21.50;59.70;;;21.92;44.47;95575.72;5013965;28;20214;-79
2022/08/08 07:12:42;;;;;;;0.40;0.40;;;21.60;59.70;;;22.03;44.51;95580.16;5048171;28;20215;-79
2022/08/08 07:15:17;;;;;;;0.30;0.30;;;21.70;59.50;;;22.11;44.21;95570.91;5040252;28;20199;-79
2022/08/08 07:18:08;;;;;;;0.40;0.40;;;21.80;59.40;;;22.18;44.65;95563.50;5031633;28;20664;-79
2022/08/08 07:21:04;;;;;;;0.30;0.30;;;21.90;59.50;;;22.27;43.93;95566.53;5013400;28;20229;-80
2022/08/08 07:23:58;;;;;;;0.32;0.32;;;22.00;59.20;;;22.35;44.12;95573.31;5023784;28;20207;-78
2022/08/08 07:26:45;;;;;;;0.40;0.40;;;22.10;58.90;;;22.42;43.99;95570.47;5038213;28;20231;-79
2022/08/08 07:29:17;;;;;;;0.30;0.30;;;22.10;59.00;;;22.48;44.03;95578.28;5037235;28;20243;-79
2022/08/08 07:32:07;;;;;;;0.30;0.30;;;22.20;58.80;;;22.55;43.73;95580.78;5053336;28;20374;-78
2022/08/08 07:34:36;;;;;;;0.40;0.40;;;22.30;58.70;;;22.63;43.43;95580.34;5054671;28;20200;-79
2022/08/08 07:37:25;;;;;;;0.38;0.38;;;22.30;58.70;;;22.73;43.31;95578.81;5024268;28;20212;-79
2022/08/08 07:40:14;;;;;;;0.30;0.30;;;22.40;58.40;;;22.85;43.71;95590.97;5043013;28;20534;-80
2022/08/08 07:43:00;;;;;;;0.30;0.30;;;22.50;58.70;;;22.97;43.30;95588.16;5034996;28;20214;-80
2022/08/08 07:45:28;;;;;;;0.50;0.50;;;22.60;58.50;;;23.07;43.09;95579.41;5010269;28;20197;-80
2022/08/08 07:48:17;;;;;;;0.40;0.40;;;22.70;58.00;;;23.16;42.87;95579.75;5044033;28;20212;-79
2022/08/08 07:50:48;;;;;;;0.30;0.30;;;22.90;58.20;;;23.28;42.88;95579.63;5013247;28;20247;-79
2022/08/08 07:53:37;;;;;;;0.40;0.40;;;23.00;57.90;;;23.40;42.79;95584.75;5011844;28;20300;-80
2022/08/08 07:56:30;;;;;;;0.30;0.30;;;23.10;58.10;;;23.54;42.95;95588.63;5025958;28;20698;-82
2022/08/08 07:59:13;;;;;;;0.30;0.30;;;23.20;58.10;;;23.65;41.91;95582.25;5013032;28;20202;-78
2022/08/08 08:01:57;;;;;;;0.50;0.50;;;23.40;56.70;;;23.73;41.66;95574.81;4998680;28;20651;-79
2022/08/08 08:04:51;;;;;;;0.40;0.40;;;23.50;56.90;;;23.91;41.65;95577.06;5040962;28;20210;-80
2022/08/08 08:07:25;;;;;;;0.40;0.40;;;23.70;56.70;;;24.05;41.53;95582.78;5016619;28;20302;-80
2022/08/08 08:10:04;;;;;;;0.40;0.40;;;23.80;56.20;;;24.15;41.23;95579.34;5031506;28;20215;-78
2022/08/08 08:12:37;;;;;;;0.30;0.30;;;23.90;56.20;;;24.32;41.06;95578.34;5002697;28;20220;-78
2022/08/08 08:15:17;;;;;;;0.50;0.50;;;24.10;56.10;;;24.49;40.66;95584.28;5038837;28;20250;-79
2022/08/08 08:17:56;;;;;;;0.50;0.50;;;24.20;55.80;;;24.66;40.37;95586.78;5034906;28;20195;-79
2022/08/08 08:20:28;;;;;;;0.32;0.32;;;24.40;55.10;;;24.78;39.94;95579.28;5048810;28;20669;-79
2022/08/08 08:23:00;;;;;;;0.38;0.38;;;24.50;54.30;;;24.92;39.88;95587.63;5034375;28;20716;-80
2022/08/08 08:25:28;;;;;;;0.30;0.30;;;24.60;54.30;;;25.02;39.67;95588.72;5010844;28;20570;-79
2022/08/08 08:28:10;;;;;;;0.30;0.30;;;24.80;54.40;;;25.07;38.88;95581.47;5001223;28;20228;-79
2022/08/08 08:30:49;;;;;;;0.50;0.50;;;24.90;53.50;;;25.15;38.95;95598.13;5033416;28;20579;-79
2022/08/08 08:33:17;;;;;;;0.30;0.30;;;25.00;53.60;;;25.18;39.04;95587.66;5012592;28;20196;-77
2022/08/08 08:35:48;;;;;;;0.60;0.60;;;25.00;53.30;;;25.23;38.47;95586.84;5057850;28;20588;-80
2022/08/08 08:38:39;;;;;;;0.30;0.30;;;25.10;54.20;;;25.23;37.97;95587.66;5029702;28;20223;-79
2022/08/08 08:41:21;;;;;;;0.40;0.40;;;25.10;52.20;;;25.22;37.89;95596.00;5031604;28;20215;-78
2022/08/08 08:43:51;;;;;;;0.20;0.20;;;25.10;52.10;;;25.19;37.90;95583.09;5054954;28;20255;-79
2022/08/08 08:46:39;;;;;;;0.30;0.30;;;25.10;51.90;;;25.17;37.78;95587.91;5030172;28;20240;-79
2022/08/08 08:49:25;;;;;;;0.30;0.30;;;25.10;52.10;;;25.10;37.83;95588.97;5021060;28;20240;-80
2022/08/08 08:52:05;;;;;;;0.30;0.30;;;25.10;51.70;;;25.04;37.53;95583.88;5034347;28;20288;-79
2022/08/08 08:54:35;;;;;;;0.60;0.60;;;25.00;51.70;;;24.95;37.27;95578.25;5049581;28;20653;-80
2022/08/08 08:57:08;;;;;;;0.30;0.30;;;25.00;51.40;;;24.92;37.95;95584.13;5059129;28;20223;-82
2022/08/08 08:59:48;;;;;;;0.40;0.40;;;24.90;51.90;;;24.85;37.41;95587.09;5021388;28;20669;-80
2022/08/08 09:02:35;;;;;;;0.30;0.30;;;24.90;51.50;;;24.82;37.49;95584.13;5038480;28;20238;-80
2022/08/08 09:05:09;;;;;;;0.50;0.50;;;24.80;51.70;;;24.74;37.58;95586.28;5036709;28;20213;-79
2022/08/08 09:08:02;;;;;;;0.40;0.40;;;24.80;53.00;;;24.67;37.72;95588.41;5041612;28;20646;-80
2022/08/08 09:10:44;;;;;;;0.30;0.30;;;24.70;51.70;;;24.60;37.95;95591.28;5035524;28;20219;-80
2022/08/08 09:13:17;;;;;;;0.30;0.30;;;24.60;51.80;;;24.56;37.13;95579.50;5054859;28;20218;-79
2022/08/08 09:15:55;;;;;;;0.40;0.40;;;24.50;51.30;;;24.52;37.79;95585.63;5013752;28;20233;-79
2022/08/08 09:18:30;;;;;;;0.40;0.40;;;24.50;51.70;;;24.46;37.67;95590.16;5064879;28;20207;-78
2022/08/08 09:21:00;;;;;;;0.40;0.40;;;24.50;51.90;;;24.40;37.42;95586.69;5035291;28;20736;-79
2022/08/08 09:23:47;;;;;;;0.40;0.40;;;24.40;51.30;;;24.36;37.49;95590.16;5025927;28;20227;-79
2022/08/08 09:26:22;;;;;;;0.70;0.70;;;24.30;51.50;;;24.32;37.33;95584.50;5028291;28;20585;-80
2022/08/08 09:28:57;;;;;;;0.50;0.50;;;24.30;51.20;;;24.27;37.53;95585.28;5024910;28;20232;-78
2022/08/08 09:31:52;;;;;;;0.30;0.30;;;24.20;51.70;;;24.24;37.68;95585.81;5029484;28;20219;-81
2022/08/08 09:34:31;;;;;;;0.40;0.40;;;24.20;51.60;;;24.25;37.52;95587.41;5028743;28;20574;-80
2022/08/08 09:37:08;;;;;;;0.30;0.30;;;24.20;51.30;;;24.28;37.80;95583.44;5033743;28;20799;-80
2022/08/08 09:40:08;;;;;;;0.40;0.40;;;24.10;51.50;;;24.29;37.51;95575.13;5033156;28;20213;-80
2022/08/08 09:42:47;;;;;;;0.40;0.40;;;24.10;51.60;;;24.32;37.43;95573.78;5014823;28;20230;-78
2022/08/08 09:45:32;;;;;;;0.50;0.50;;;24.20;51.40;;;24.37;37.21;95570.31;5031481;28;20199;-81
2022/08/08 09:48:19;;;;;;;0.40;0.40;;;24.10;51.40;;;24.41;37.44;95571.38;5018348;28;20595;-81
2022/08/08 09:51:03;;;;;;;0.40;0.40;;;24.20;51.80;;;24.51;37.28;95565.25;5019244;28;20929;-80
2022/08/08 09:53:48;;;;;;;0.50;0.50;;;24.30;51.50;;;24.61;37.21;95567.97;5028075;28;20199;-80
2022/08/08 09:56:36;;;;;;;0.40;0.40;;;24.40;51.10;;;24.75;36.87;95566.41;5034859;28;20689;-80
2022/08/08 09:59:12;;;;;;;0.30;0.30;;;24.50;51.30;;;24.86;36.31;95571.78;5035480;28;20194;-81
2022/08/08 10:02:02;;;;;;;0.60;0.60;;;24.50;51.00;;;24.99;36.38;95560.53;5036080;28;20236;-80
2022/08/08 10:04:39;;;;;;;0.30;0.30;;;24.70;51.20;;;25.10;36.85;95556.78;5030039;28;20203;-79
2022/08/08 10:07:15;;;;;;;0.40;0.40;;;24.80;51.00;;;25.19;36.28;95548.19;5043080;28;20211;-80
2022/08/08 10:09:50;;;;;;;0.50;0.50;;;24.90;50.60;;;25.34;36.04;95558.09;5018462;28;20216;-79
2022/08/08 10:12:38;;;;;;;0.50;0.50;;;25.00;50.50;;;25.41;36.28;95554.13;5013843;28;20250;-80
2022/08/08 10:15:22;;;;;;;0.50;0.50;;;25.10;50.50;;;25.47;36.07;95538.00;5033584;28;20198;-79
2022/08/08 10:17:54;;;;;;;0.40;0.40;;;25.20;50.40;;;25.59;35.63;95545.78;5032969;28;20221;-79
2022/08/08 10:20:47;;;;;;;0.50;0.50;;;25.30;49.90;;;25.67;35.82;95545.19;5040593;28;20203;-80
2022/08/08 10:23:50;;;;;;;0.47;0.47;;;25.40;50.00;;;25.73;35.88;95549.47;5035807;28;20647;-81
2022/08/08 10:26:39;;;;;;;0.40;0.40;;;25.50;50.60;;;25.83;35.57;95549.47;5017371;28;20255;-79
2022/08/08 10:29:53;;;;;;;0.32;0.32;;;25.50;49.80;;;25.88;35.61;95551.34;5048028;28;20261;-80
2022/08/08 10:32:36;;;;;;;0.40;0.40;;;25.60;49.80;;;25.95;35.51;95554.53;5029360;28;20217;-79
2022/08/08 10:35:14;;;;;;;0.30;0.30;;;25.70;49.50;;;25.96;34.83;95545.38;5021699;28;20606;-80
2022/08/08 10:38:04;;;;;;;0.30;0.30;;;25.70;48.30;;;25.95;35.12;95548.34;5032648;28;20259;-80
2022/08/08 10:40:37;;;;;;;0.40;0.40;;;25.80;49.10;;;25.98;35.14;95545.13;5015453;28;20228;-80
2022/08/08 10:43:05;;;;;;;0.30;0.30;;;25.80;48.50;;;25.99;34.83;95539.47;5032381;28;20186;-80
2022/08/08 10:45:44;;;;;;;0.40;0.40;;;25.80;49.10;;;26.04;35.09;95536.75;5013903;28;20208;-80
2022/08/08 10:48:35;;;;;;;0.30;0.30;;;25.80;49.30;;;26.11;35.09;95536.50;5032346;28;20248;-81
2022/08/08 10:51:25;;;;;;;0.38;0.38;;;25.90;49.20;;;26.18;34.66;95528.13;5033066;28;20220;-80
2022/08/08 10:54:07;;;;;;;0.30;0.30;;;25.90;48.50;;;26.26;34.96;95532.91;5030218;28;20225;-81
2022/08/08 10:56:36;;;;;;;0.40;0.40;;;26.00;48.80;;;26.32;34.97;95520.25;5031980;28;20708;-79
2022/08/08 10:59:09;;;;;;;0.50;0.50;;;26.00;49.00;;;26.42;35.11;95527.47;5059043;28;20226;-81
2022/08/08 11:01:47;;;;;;;0.40;0.40;;;26.10;48.90;;;26.46;34.43;95525.81;5041401;28;20288;-80
2022/08/08 11:04:23;;;;;;;0.30;0.30;;;26.20;48.70;;;26.54;34.33;95530.63;5032576;28;20299;-80
2022/08/08 11:07:05;;;;;;;0.30;0.30;;;26.30;48.30;;;26.59;34.33;95527.09;5033772;28;20227;-80
2022/08/08 11:09:33;;;;;;;0.35;0.35;;;26.30;48.40;;;26.65;34.37;95524.09;5051293;28;20225;-79
2022/08/08 11:12:02;;;;;;;0.30;0.30;;;26.40;48.00;;;26.71;34.29;95530.25;5033268;28;20872;-80
2022/08/08 11:15:01;;;;;;;0.30;0.30;;;26.40;48.40;;;26.74;34.10;95518.13;5030857;28;20187;-78
2022/08/08 11:17:31;;;;;;;0.30;0.30;;;26.50;48.60;;;26.80;34.37;95520.50;5016767;28;20778;-81
2022/08/08 11:20:22;;;;;;;0.30;0.30;;;26.60;47.60;;;26.87;33.81;95528.28;5046723;28;20184;-80
2022/08/08 11:23:00;;;;;;;0.30;0.30;;;26.60;47.80;;;26.95;33.59;95522.31;5066633;28;20195;-80
2022/08/08 11:25:33;;;;;;;0.30;0.30;;;26.70;47.60;;;27.03;34.36;95509.31;5035524;28;20652;-79
2022/08/08 11:28:24;;;;;;;0.30;0.30;;;26.80;48.00;;;27.15;34.11;95505.16;5050101;28;20208;-80
2022/08/08 11:31:00;;;;;;;0.22;0.22;;;26.80;48.00;;;27.25;33.70;95509.66;5028693;28;20244;-80
2022/08/08 11:33:36;;;;;;;0.30;0.30;;;26.90;47.60;;;27.41;33.70;95513.03;5054646;28;20201;-79
2022/08/08 11:36:23;;;;;;;0.30;0.30;;;27.10;47.20;;;27.57;34.06;95518.28;5048955;28;20225;-80
2022/08/08 11:38:55;;;;;;;0.35;0.35;;;27.20;47.30;;;27.70;33.08;95506.81;5007454;28;20203;-80
2022/08/08 11:41:24;;;;;;;0.30;0.30;;;27.40;46.60;;;27.82;33.21;95503.72;5013320;28;20225;-80